sensor_id;sensor_type;location;lat;lon;timestamp;P1;durP1;ratioP1;P2;durP2;ratioP2
7295;SDS011;40758;54.038;11.684;2024-01-16T00:00:08;4.25;;;3.42;;
7295;SDS011;40758;54.038;11.684;2024-01-16T00:02:35;4.82;;;4.03;;
7295;SDS011;40758;54.038;11.684;2024-01-16T00:05:02;4.85;;;3.10;;
7295;SDS011;40758;54.038;11.684;2024-01-16T00:07:29;1.60;;;0.60;;
7295;SDS011;40758;54.038;11.684;2024-01-16T00:09:56;3.05;;;2.17;;
7295;SDS011;40758;54.038;11.684;2024-01-16T00:12:23;2.08;;;0.60;;
7295;SDS011;40758;54.038;11.684;2024-01-16T00:14:49;3.78;;;3.58;;
7295;SDS011;40758;54.038;11.684;2024-01-16T00:17:16;2.40;;;1.95;;
7295;SDS011;40758;54.038;11.684;2024-01-16T00:19:43;2.53;;;1.90;;
7295;SDS011;40758;54.038;11.684;2024-01-16T00:22:10;3.63;;;0.95;;
7295;SDS011;40758;54.038;11.684;2024-01-16T00:24:36;4.03;;;0.70;;
7295;SDS011;40758;54.038;11.684;2024-01-16T00:27:03;2.35;;;0.93;;
7295;SDS011;40758;54.038;11.684;2024-01-16T00:29:34;2.20;;;0.60;;
7295;SDS011;40758;54.038;11.684;2024-01-16T00:32:00;1.75;;;0.55;;
7295;SDS011;40758;54.038;11.684;2024-01-16T00:34:27;3.03;;;2.83;;
7295;SDS011;40758;54.038;11.684;2024-01-16T00:36:54;2.60;;;2.40;;
7295;SDS011;40758;54.038;11.684;2024-01-16T00:39:21;4.85;;;0.52;;
7295;SDS011;40758;54.038;11.684;2024-01-16T00:41:47;3.53;;;2.80;;
7295;SDS011;40758;54.038;11.684;2024-01-16T00:44:14;1.67;;;0.40;;
7295;SDS011;40758;54.038;11.684;2024-01-16T00:46:41;2.20;;;0.65;;
7295;SDS011;40758;54.038;11.684;2024-01-16T00:49:07;3.05;;;2.40;;
7295;SDS011;40758;54.038;11.684;2024-01-16T00:51:34;1.83;;;0.70;;
7295;SDS011;40758;54.038;11.684;2024-01-16T00:54:01;4.78;;;4.57;;
7295;SDS011;40758;54.038;11.684;2024-01-16T00:56:28;1.55;;;0.45;;
7295;SDS011;40758;54.038;11.684;2024-01-16T00:58:57;5.45;;;4.15;;
7295;SDS011;40758;54.038;11.684;2024-01-16T01:01:24;2.80;;;2.60;;
7295;SDS011;40758;54.038;11.684;2024-01-16T01:03:51;3.03;;;2.72;;
7295;SDS011;40758;54.038;11.684;2024-01-16T01:06:18;1.33;;;0.50;;
7295;SDS011;40758;54.038;11.684;2024-01-16T01:08:45;2.30;;;1.33;;
7295;SDS011;40758;54.038;11.684;2024-01-16T01:11:12;2.47;;;0.60;;
7295;SDS011;40758;54.038;11.684;2024-01-16T01:13:38;1.85;;;0.47;;
7295;SDS011;40758;54.038;11.684;2024-01-16T01:16:05;2.80;;;0.60;;
7295;SDS011;40758;54.038;11.684;2024-01-16T01:18:32;7.72;;;2.60;;
7295;SDS011;40758;54.038;11.684;2024-01-16T01:20:59;1.23;;;0.40;;
7295;SDS011;40758;54.038;11.684;2024-01-16T01:23:25;4.00;;;3.70;;
7295;SDS011;40758;54.038;11.684;2024-01-16T01:25:52;4.43;;;4.22;;
7295;SDS011;40758;54.038;11.684;2024-01-16T01:28:19;2.83;;;2.63;;
7295;SDS011;40758;54.038;11.684;2024-01-16T01:30:45;3.13;;;2.67;;
7295;SDS011;40758;54.038;11.684;2024-01-16T01:33:13;3.97;;;3.67;;
7295;SDS011;40758;54.038;11.684;2024-01-16T01:35:40;3.45;;;3.15;;
7295;SDS011;40758;54.038;11.684;2024-01-16T01:38:07;1.30;;;0.40;;
7295;SDS011;40758;54.038;11.684;2024-01-16T01:40:35;4.13;;;2.72;;
7295;SDS011;40758;54.038;11.684;2024-01-16T01:43:16;2.75;;;2.47;;
7295;SDS011;40758;54.038;11.684;2024-01-16T01:46:36;4.65;;;3.15;;
7295;SDS011;40758;54.038;11.684;2024-01-16T01:48:42;1.40;;;0.40;;
7295;SDS011;40758;54.038;11.684;2024-01-16T01:51:10;2.90;;;2.70;;
7295;SDS011;40758;54.038;11.684;2024-01-16T01:53:39;2.00;;;1.58;;
7295;SDS011;40758;54.038;11.684;2024-01-16T01:56:10;2.38;;;2.05;;
7295;SDS011;40758;54.038;11.684;2024-01-16T01:58:43;3.30;;;0.95;;
7295;SDS011;40758;54.038;11.684;2024-01-16T02:01:12;2.35;;;1.77;;
7295;SDS011;40758;54.038;11.684;2024-01-16T02:03:42;3.28;;;2.97;;
7295;SDS011;40758;54.038;11.684;2024-01-16T02:06:10;4.13;;;3.45;;
7295;SDS011;40758;54.038;11.684;2024-01-16T02:08:39;3.10;;;2.20;;
7295;SDS011;40758;54.038;11.684;2024-01-16T02:11:06;2.40;;;2.20;;
7295;SDS011;40758;54.038;11.684;2024-01-16T02:13:32;4.63;;;0.40;;
7295;SDS011;40758;54.038;11.684;2024-01-16T02:15:59;2.05;;;1.90;;
7295;SDS011;40758;54.038;11.684;2024-01-16T02:18:27;1.40;;;0.57;;
7295;SDS011;40758;54.038;11.684;2024-01-16T02:20:54;4.00;;;3.70;;
7295;SDS011;40758;54.038;11.684;2024-01-16T02:23:28;3.88;;;3.15;;
7295;SDS011;40758;54.038;11.684;2024-01-16T02:25:56;3.65;;;3.33;;
7295;SDS011;40758;54.038;11.684;2024-01-16T02:28:23;2.70;;;2.50;;
7295;SDS011;40758;54.038;11.684;2024-01-16T02:30:50;2.60;;;2.17;;
7295;SDS011;40758;54.038;11.684;2024-01-16T02:33:17;5.65;;;3.40;;
7295;SDS011;40758;54.038;11.684;2024-01-16T02:35:44;3.15;;;1.45;;
7295;SDS011;40758;54.038;11.684;2024-01-16T02:38:11;2.95;;;2.75;;
7295;SDS011;40758;54.038;11.684;2024-01-16T02:40:38;4.65;;;4.35;;
7295;SDS011;40758;54.038;11.684;2024-01-16T02:43:04;1.88;;;1.45;;
7295;SDS011;40758;54.038;11.684;2024-01-16T02:45:31;2.97;;;2.13;;
7295;SDS011;40758;54.038;11.684;2024-01-16T02:47:58;2.03;;;0.68;;
7295;SDS011;40758;54.038;11.684;2024-01-16T02:50:26;3.10;;;2.85;;
7295;SDS011;40758;54.038;11.684;2024-01-16T02:52:52;1.63;;;0.70;;
7295;SDS011;40758;54.038;11.684;2024-01-16T02:55:19;4.35;;;4.05;;
7295;SDS011;40758;54.038;11.684;2024-01-16T02:57:45;1.85;;;1.75;;
7295;SDS011;40758;54.038;11.684;2024-01-16T03:00:12;2.75;;;2.55;;
7295;SDS011;40758;54.038;11.684;2024-01-16T03:02:40;0.85;;;0.45;;
7295;SDS011;40758;54.038;11.684;2024-01-16T03:05:07;2.05;;;0.98;;
7295;SDS011;40758;54.038;11.684;2024-01-16T03:07:34;3.60;;;3.08;;
7295;SDS011;40758;54.038;11.684;2024-01-16T03:10:01;3.30;;;2.00;;
7295;SDS011;40758;54.038;11.684;2024-01-16T03:12:27;3.53;;;3.05;;
7295;SDS011;40758;54.038;11.684;2024-01-16T03:14:54;2.60;;;0.63;;
7295;SDS011;40758;54.038;11.684;2024-01-16T03:17:21;3.25;;;3.05;;
7295;SDS011;40758;54.038;11.684;2024-01-16T03:19:48;2.63;;;0.90;;
7295;SDS011;40758;54.038;11.684;2024-01-16T03:22:17;3.00;;;2.38;;
7295;SDS011;40758;54.038;11.684;2024-01-16T03:24:44;3.53;;;2.92;;
7295;SDS011;40758;54.038;11.684;2024-01-16T03:27:12;1.88;;;0.70;;
7295;SDS011;40758;54.038;11.684;2024-01-16T03:29:39;3.60;;;3.05;;
7295;SDS011;40758;54.038;11.684;2024-01-16T03:32:06;2.20;;;0.40;;
7295;SDS011;40758;54.038;11.684;2024-01-16T03:34:33;4.03;;;3.72;;
7295;SDS011;40758;54.038;11.684;2024-01-16T03:37:00;1.65;;;0.70;;
7295;SDS011;40758;54.038;11.684;2024-01-16T03:39:27;1.15;;;0.47;;
7295;SDS011;40758;54.038;11.684;2024-01-16T03:41:54;1.02;;;0.50;;
7295;SDS011;40758;54.038;11.684;2024-01-16T03:44:21;2.63;;;2.38;;
7295;SDS011;40758;54.038;11.684;2024-01-16T03:46:47;2.88;;;2.65;;
7295;SDS011;40758;54.038;11.684;2024-01-16T03:49:14;3.22;;;3.03;;
7295;SDS011;40758;54.038;11.684;2024-01-16T03:51:41;2.72;;;0.57;;
7295;SDS011;40758;54.038;11.684;2024-01-16T03:54:12;3.97;;;3.03;;
7295;SDS011;40758;54.038;11.684;2024-01-16T03:56:39;3.90;;;3.00;;
7295;SDS011;40758;54.038;11.684;2024-01-16T03:59:06;2.65;;;2.45;;
7295;SDS011;40758;54.038;11.684;2024-01-16T04:01:33;1.77;;;1.67;;
7295;SDS011;40758;54.038;11.684;2024-01-16T04:04:03;2.92;;;2.78;;
7295;SDS011;40758;54.038;11.684;2024-01-16T04:06:33;3.60;;;3.40;;
7295;SDS011;40758;54.038;11.684;2024-01-16T04:09:00;2.90;;;2.70;;
7295;SDS011;40758;54.038;11.684;2024-01-16T04:11:27;4.20;;;3.90;;
7295;SDS011;40758;54.038;11.684;2024-01-16T04:13:54;2.15;;;1.95;;
7295;SDS011;40758;54.038;11.684;2024-01-16T04:16:21;4.25;;;2.63;;
7295;SDS011;40758;54.038;11.684;2024-01-16T04:18:47;2.60;;;2.40;;
7295;SDS011;40758;54.038;11.684;2024-01-16T04:21:15;1.60;;;1.13;;
7295;SDS011;40758;54.038;11.684;2024-01-16T04:23:45;9.73;;;3.28;;
7295;SDS011;40758;54.038;11.684;2024-01-16T04:26:13;4.97;;;3.10;;
7295;SDS011;40758;54.038;11.684;2024-01-16T04:28:40;2.47;;;1.20;;
7295;SDS011;40758;54.038;11.684;2024-01-16T04:31:06;5.07;;;4.70;;
7295;SDS011;40758;54.038;11.684;2024-01-16T04:33:33;3.55;;;3.20;;
7295;SDS011;40758;54.038;11.684;2024-01-16T04:36:00;2.72;;;2.53;;
7295;SDS011;40758;54.038;11.684;2024-01-16T04:38:27;2.60;;;0.80;;
7295;SDS011;40758;54.038;11.684;2024-01-16T04:40:53;3.42;;;1.75;;
7295;SDS011;40758;54.038;11.684;2024-01-16T04:43:20;4.55;;;4.25;;
7295;SDS011;40758;54.038;11.684;2024-01-16T04:45:47;4.95;;;3.50;;
7295;SDS011;40758;54.038;11.684;2024-01-16T04:48:13;4.30;;;3.85;;
7295;SDS011;40758;54.038;11.684;2024-01-16T04:50:40;4.60;;;4.20;;
7295;SDS011;40758;54.038;11.684;2024-01-16T04:53:07;3.80;;;1.52;;
7295;SDS011;40758;54.038;11.684;2024-01-16T04:55:34;4.20;;;3.53;;
7295;SDS011;40758;54.038;11.684;2024-01-16T04:58:00;5.55;;;3.55;;
7295;SDS011;40758;54.038;11.684;2024-01-16T05:00:27;3.15;;;0.88;;
7295;SDS011;40758;54.038;11.684;2024-01-16T05:02:56;4.13;;;2.97;;
7295;SDS011;40758;54.038;11.684;2024-01-16T05:05:23;5.28;;;3.65;;
7295;SDS011;40758;54.038;11.684;2024-01-16T05:07:54;2.95;;;2.15;;
7295;SDS011;40758;54.038;11.684;2024-01-16T05:10:21;2.83;;;0.95;;
7295;SDS011;40758;54.038;11.684;2024-01-16T05:12:48;5.13;;;4.72;;
7295;SDS011;40758;54.038;11.684;2024-01-16T05:15:15;3.92;;;3.35;;
7295;SDS011;40758;54.038;11.684;2024-01-16T05:17:42;2.47;;;2.25;;
7295;SDS011;40758;54.038;11.684;2024-01-16T05:20:09;2.75;;;2.00;;
7295;SDS011;40758;54.038;11.684;2024-01-16T05:22:37;5.75;;;3.63;;
7295;SDS011;40758;54.038;11.684;2024-01-16T05:25:05;7.13;;;2.55;;
7295;SDS011;40758;54.038;11.684;2024-01-16T05:27:33;5.90;;;5.50;;
7295;SDS011;40758;54.038;11.684;2024-01-16T05:30:00;2.78;;;1.13;;
7295;SDS011;40758;54.038;11.684;2024-01-16T05:32:27;4.28;;;3.92;;
7295;SDS011;40758;54.038;11.684;2024-01-16T05:34:54;4.00;;;2.85;;
7295;SDS011;40758;54.038;11.684;2024-01-16T05:37:21;6.35;;;1.63;;
7295;SDS011;40758;54.038;11.684;2024-01-16T05:39:48;5.90;;;4.00;;
7295;SDS011;40758;54.038;11.684;2024-01-16T05:42:14;6.25;;;5.72;;
7295;SDS011;40758;54.038;11.684;2024-01-16T05:44:42;5.75;;;4.68;;
7295;SDS011;40758;54.038;11.684;2024-01-16T05:47:08;6.47;;;5.88;;
7295;SDS011;40758;54.038;11.684;2024-01-16T05:49:35;4.78;;;4.05;;
7295;SDS011;40758;54.038;11.684;2024-01-16T05:52:02;8.25;;;4.40;;
7295;SDS011;40758;54.038;11.684;2024-01-16T05:54:30;6.15;;;4.05;;
7295;SDS011;40758;54.038;11.684;2024-01-16T05:56:56;6.20;;;5.38;;
7295;SDS011;40758;54.038;11.684;2024-01-16T05:59:23;3.85;;;3.45;;
7295;SDS011;40758;54.038;11.684;2024-01-16T06:01:50;6.55;;;3.95;;
7295;SDS011;40758;54.038;11.684;2024-01-16T06:04:16;5.90;;;5.20;;
7295;SDS011;40758;54.038;11.684;2024-01-16T06:06:43;3.95;;;3.65;;
7295;SDS011;40758;54.038;11.684;2024-01-16T06:09:12;6.25;;;4.60;;
7295;SDS011;40758;54.038;11.684;2024-01-16T06:11:40;5.07;;;2.20;;
7295;SDS011;40758;54.038;11.684;2024-01-16T06:14:07;8.35;;;4.78;;
7295;SDS011;40758;54.038;11.684;2024-01-16T06:16:35;6.07;;;4.95;;
7295;SDS011;40758;54.038;11.684;2024-01-16T06:19:02;5.72;;;4.88;;
7295;SDS011;40758;54.038;11.684;2024-01-16T06:21:29;5.55;;;5.00;;
7295;SDS011;40758;54.038;11.684;2024-01-16T06:23:57;7.25;;;6.65;;
7295;SDS011;40758;54.038;11.684;2024-01-16T06:26:24;7.10;;;4.50;;
7295;SDS011;40758;54.038;11.684;2024-01-16T06:28:50;5.00;;;4.18;;
7295;SDS011;40758;54.038;11.684;2024-01-16T06:31:17;7.78;;;2.75;;
7295;SDS011;40758;54.038;11.684;2024-01-16T06:33:44;8.52;;;5.60;;
7295;SDS011;40758;54.038;11.684;2024-01-16T06:36:11;6.15;;;4.53;;
7295;SDS011;40758;54.038;11.684;2024-01-16T06:38:39;4.28;;;1.48;;
7295;SDS011;40758;54.038;11.684;2024-01-16T06:41:07;9.38;;;8.73;;
7295;SDS011;40758;54.038;11.684;2024-01-16T06:43:34;5.10;;;1.40;;
7295;SDS011;40758;54.038;11.684;2024-01-16T06:46:01;4.97;;;2.63;;
7295;SDS011;40758;54.038;11.684;2024-01-16T06:48:28;6.90;;;4.60;;
7295;SDS011;40758;54.038;11.684;2024-01-16T06:50:55;7.22;;;1.67;;
7295;SDS011;40758;54.038;11.684;2024-01-16T06:53:22;5.75;;;4.32;;
7295;SDS011;40758;54.038;11.684;2024-01-16T06:55:49;9.60;;;5.68;;
7295;SDS011;40758;54.038;11.684;2024-01-16T06:58:16;4.00;;;3.20;;
7295;SDS011;40758;54.038;11.684;2024-01-16T07:00:43;5.63;;;2.97;;
7295;SDS011;40758;54.038;11.684;2024-01-16T07:03:11;6.63;;;1.90;;
7295;SDS011;40758;54.038;11.684;2024-01-16T07:05:38;6.53;;;2.05;;
7295;SDS011;40758;54.038;11.684;2024-01-16T07:08:07;8.10;;;6.97;;
7295;SDS011;40758;54.038;11.684;2024-01-16T07:10:35;9.63;;;2.20;;
7295;SDS011;40758;54.038;11.684;2024-01-16T07:13:02;11.02;;;4.05;;
7295;SDS011;40758;54.038;11.684;2024-01-16T07:15:29;7.20;;;2.88;;
7295;SDS011;40758;54.038;11.684;2024-01-16T07:17:55;8.05;;;1.92;;
7295;SDS011;40758;54.038;11.684;2024-01-16T07:20:22;10.15;;;3.35;;
7295;SDS011;40758;54.038;11.684;2024-01-16T07:22:49;10.10;;;7.75;;
7295;SDS011;40758;54.038;11.684;2024-01-16T07:25:17;8.43;;;5.90;;
7295;SDS011;40758;54.038;11.684;2024-01-16T07:27:43;5.00;;;1.83;;
7295;SDS011;40758;54.038;11.684;2024-01-16T07:30:13;6.20;;;5.60;;
7295;SDS011;40758;54.038;11.684;2024-01-16T07:32:40;9.27;;;3.22;;
7295;SDS011;40758;54.038;11.684;2024-01-16T07:35:07;7.88;;;5.78;;
7295;SDS011;40758;54.038;11.684;2024-01-16T07:37:34;11.20;;;7.03;;
7295;SDS011;40758;54.038;11.684;2024-01-16T07:40:01;3.85;;;2.78;;
7295;SDS011;40758;54.038;11.684;2024-01-16T07:42:27;5.28;;;1.73;;
7295;SDS011;40758;54.038;11.684;2024-01-16T07:45:00;10.82;;;3.65;;
7295;SDS011;40758;54.038;11.684;2024-01-16T07:47:31;8.27;;;3.90;;
7295;SDS011;40758;54.038;11.684;2024-01-16T07:49:59;12.43;;;4.78;;
7295;SDS011;40758;54.038;11.684;2024-01-16T07:52:27;8.95;;;6.15;;
7295;SDS011;40758;54.038;11.684;2024-01-16T07:54:55;9.82;;;3.83;;
7295;SDS011;40758;54.038;11.684;2024-01-16T07:57:21;22.40;;;9.50;;
7295;SDS011;40758;54.038;11.684;2024-01-16T07:59:48;18.17;;;9.30;;
7295;SDS011;40758;54.038;11.684;2024-01-16T08:02:15;12.45;;;6.82;;
7295;SDS011;40758;54.038;11.684;2024-01-16T08:04:42;17.20;;;8.02;;
7295;SDS011;40758;54.038;11.684;2024-01-16T08:07:08;17.70;;;9.50;;
7295;SDS011;40758;54.038;11.684;2024-01-16T08:09:35;13.63;;;5.00;;
7295;SDS011;40758;54.038;11.684;2024-01-16T08:12:02;14.25;;;5.78;;
7295;SDS011;40758;54.038;11.684;2024-01-16T08:14:30;16.63;;;7.90;;
7295;SDS011;40758;54.038;11.684;2024-01-16T08:16:56;10.02;;;3.45;;
7295;SDS011;40758;54.038;11.684;2024-01-16T08:19:23;13.98;;;6.43;;
7295;SDS011;40758;54.038;11.684;2024-01-16T08:21:50;10.95;;;7.35;;
7295;SDS011;40758;54.038;11.684;2024-01-16T08:24:16;12.18;;;4.82;;
7295;SDS011;40758;54.038;11.684;2024-01-16T08:26:43;13.68;;;8.10;;
7295;SDS011;40758;54.038;11.684;2024-01-16T08:29:09;9.95;;;4.88;;
7295;SDS011;40758;54.038;11.684;2024-01-16T08:31:37;10.18;;;4.78;;
7295;SDS011;40758;54.038;11.684;2024-01-16T08:34:04;7.43;;;2.92;;
7295;SDS011;40758;54.038;11.684;2024-01-16T08:36:31;13.20;;;7.38;;
7295;SDS011;40758;54.038;11.684;2024-01-16T08:38:58;10.80;;;5.57;;
7295;SDS011;40758;54.038;11.684;2024-01-16T08:41:25;8.88;;;6.00;;
7295;SDS011;40758;54.038;11.684;2024-01-16T08:43:52;8.70;;;3.55;;
7295;SDS011;40758;54.038;11.684;2024-01-16T08:46:19;12.50;;;8.93;;
7295;SDS011;40758;54.038;11.684;2024-01-16T08:48:47;11.75;;;4.03;;
7295;SDS011;40758;54.038;11.684;2024-01-16T08:51:15;10.30;;;6.22;;
7295;SDS011;40758;54.038;11.684;2024-01-16T08:53:42;14.07;;;5.97;;
7295;SDS011;40758;54.038;11.684;2024-01-16T08:56:09;8.50;;;5.45;;
7295;SDS011;40758;54.038;11.684;2024-01-16T08:58:36;16.70;;;8.13;;
7295;SDS011;40758;54.038;11.684;2024-01-16T09:01:04;11.20;;;6.70;;
7295;SDS011;40758;54.038;11.684;2024-01-16T09:03:32;16.45;;;7.18;;
7295;SDS011;40758;54.038;11.684;2024-01-16T09:06:00;8.65;;;6.60;;
7295;SDS011;40758;54.038;11.684;2024-01-16T09:08:28;15.00;;;8.65;;
7295;SDS011;40758;54.038;11.684;2024-01-16T09:10:55;10.13;;;6.85;;
7295;SDS011;40758;54.038;11.684;2024-01-16T09:13:24;6.88;;;4.30;;
7295;SDS011;40758;54.038;11.684;2024-01-16T09:15:51;14.40;;;9.00;;
7295;SDS011;40758;54.038;11.684;2024-01-16T09:18:18;11.02;;;3.83;;
7295;SDS011;40758;54.038;11.684;2024-01-16T09:20:45;11.98;;;7.07;;
7295;SDS011;40758;54.038;11.684;2024-01-16T09:23:13;12.70;;;5.93;;
7295;SDS011;40758;54.038;11.684;2024-01-16T09:25:41;3.95;;;3.60;;
7295;SDS011;40758;54.038;11.684;2024-01-16T09:28:12;12.60;;;4.35;;
7295;SDS011;40758;54.038;11.684;2024-01-16T09:30:38;12.05;;;7.93;;
7295;SDS011;40758;54.038;11.684;2024-01-16T09:33:05;6.43;;;3.67;;
7295;SDS011;40758;54.038;11.684;2024-01-16T09:35:33;13.57;;;9.10;;
7295;SDS011;40758;54.038;11.684;2024-01-16T09:38:01;15.88;;;10.02;;
7295;SDS011;40758;54.038;11.684;2024-01-16T09:40:28;12.95;;;5.22;;
7295;SDS011;40758;54.038;11.684;2024-01-16T09:42:54;14.85;;;8.65;;
7295;SDS011;40758;54.038;11.684;2024-01-16T09:45:22;3.33;;;3.03;;
7295;SDS011;40758;54.038;11.684;2024-01-16T09:47:50;13.65;;;8.77;;
7295;SDS011;40758;54.038;11.684;2024-01-16T09:52:46;11.15;;;6.10;;
7295;SDS011;40758;54.038;11.684;2024-01-16T09:55:15;15.63;;;7.50;;
7295;SDS011;40758;54.038;11.684;2024-01-16T09:57:43;7.15;;;2.45;;
7295;SDS011;40758;54.038;11.684;2024-01-16T10:00:12;8.50;;;6.18;;
7295;SDS011;40758;54.038;11.684;2024-01-16T10:02:39;6.78;;;6.00;;
7295;SDS011;40758;54.038;11.684;2024-01-16T10:05:07;12.57;;;5.65;;
7295;SDS011;40758;54.038;11.684;2024-01-16T10:07:38;5.00;;;4.38;;
7295;SDS011;40758;54.038;11.684;2024-01-16T10:10:11;8.73;;;4.78;;
7295;SDS011;40758;54.038;11.684;2024-01-16T10:13:03;7.97;;;3.85;;
7295;SDS011;40758;54.038;11.684;2024-01-16T10:15:31;6.63;;;5.78;;
7295;SDS011;40758;54.038;11.684;2024-01-16T10:17:58;4.28;;;3.90;;
7295;SDS011;40758;54.038;11.684;2024-01-16T10:20:33;15.13;;;8.23;;
7295;SDS011;40758;54.038;11.684;2024-01-16T10:25:30;4.20;;;3.10;;
7295;SDS011;40758;54.038;11.684;2024-01-16T10:28:04;6.00;;;5.50;;
7295;SDS011;40758;54.038;11.684;2024-01-16T10:30:32;15.40;;;5.75;;
7295;SDS011;40758;54.038;11.684;2024-01-16T10:33:11;13.00;;;4.88;;
7295;SDS011;40758;54.038;11.684;2024-01-16T10:35:41;12.05;;;8.85;;
7295;SDS011;40758;54.038;11.684;2024-01-16T10:38:07;4.93;;;2.33;;
7295;SDS011;40758;54.038;11.684;2024-01-16T10:40:34;9.15;;;6.32;;
7295;SDS011;40758;54.038;11.684;2024-01-16T10:43:02;7.65;;;2.92;;
7295;SDS011;40758;54.038;11.684;2024-01-16T10:45:30;14.13;;;6.25;;
7295;SDS011;40758;54.038;11.684;2024-01-16T10:48:05;4.75;;;4.00;;
7295;SDS011;40758;54.038;11.684;2024-01-16T10:50:35;4.93;;;2.10;;
7295;SDS011;40758;54.038;11.684;2024-01-16T10:53:04;18.35;;;9.23;;
7295;SDS011;40758;54.038;11.684;2024-01-16T10:55:37;20.55;;;11.57;;
7295;SDS011;40758;54.038;11.684;2024-01-16T10:58:15;17.65;;;8.73;;
7295;SDS011;40758;54.038;11.684;2024-01-16T11:00:43;9.88;;;8.13;;
7295;SDS011;40758;54.038;11.684;2024-01-16T11:05:59;12.68;;;8.73;;
7295;SDS011;40758;54.038;11.684;2024-01-16T11:08:28;15.80;;;6.97;;
7295;SDS011;40758;54.038;11.684;2024-01-16T11:10:59;9.55;;;5.38;;
7295;SDS011;40758;54.038;11.684;2024-01-16T11:13:27;6.07;;;1.95;;
7295;SDS011;40758;54.038;11.684;2024-01-16T11:15:54;13.32;;;5.03;;
7295;SDS011;40758;54.038;11.684;2024-01-16T11:18:24;12.77;;;5.20;;
7295;SDS011;40758;54.038;11.684;2024-01-16T11:20:51;11.32;;;4.88;;
7295;SDS011;40758;54.038;11.684;2024-01-16T11:23:33;15.73;;;6.90;;
7295;SDS011;40758;54.038;11.684;2024-01-16T11:28:50;10.00;;;3.33;;
7295;SDS011;40758;54.038;11.684;2024-01-16T11:31:32;13.73;;;7.68;;
7295;SDS011;40758;54.038;11.684;2024-01-16T11:34:02;16.05;;;5.30;;
7295;SDS011;40758;54.038;11.684;2024-01-16T11:39:19;12.38;;;8.95;;
7295;SDS011;40758;54.038;11.684;2024-01-16T11:41:53;11.90;;;6.03;;
7295;SDS011;40758;54.038;11.684;2024-01-16T11:47:15;13.10;;;6.32;;
7295;SDS011;40758;54.038;11.684;2024-01-16T11:49:51;10.55;;;4.30;;
7295;SDS011;40758;54.038;11.684;2024-01-16T11:52:44;16.77;;;7.25;;
7295;SDS011;40758;54.038;11.684;2024-01-16T11:55:24;10.70;;;6.20;;
7295;SDS011;40758;54.038;11.684;2024-01-16T12:00:39;9.80;;;3.97;;
7295;SDS011;40758;54.038;11.684;2024-01-16T12:03:07;13.40;;;7.00;;
7295;SDS011;40758;54.038;11.684;2024-01-16T12:05:37;10.55;;;5.20;;
7295;SDS011;40758;54.038;11.684;2024-01-16T12:08:03;14.07;;;4.63;;
7295;SDS011;40758;54.038;11.684;2024-01-16T12:10:35;11.85;;;4.70;;
7295;SDS011;40758;54.038;11.684;2024-01-16T12:13:13;11.45;;;7.68;;
7295;SDS011;40758;54.038;11.684;2024-01-16T12:15:41;13.57;;;10.30;;
7295;SDS011;40758;54.038;11.684;2024-01-16T12:18:08;13.88;;;6.25;;
7295;SDS011;40758;54.038;11.684;2024-01-16T12:20:51;12.88;;;7.95;;
7295;SDS011;40758;54.038;11.684;2024-01-16T12:23:18;13.43;;;7.07;;
7295;SDS011;40758;54.038;11.684;2024-01-16T12:25:46;9.70;;;4.20;;
7295;SDS011;40758;54.038;11.684;2024-01-16T12:28:29;8.70;;;3.17;;
7295;SDS011;40758;54.038;11.684;2024-01-16T12:30:59;11.15;;;6.70;;
7295;SDS011;40758;54.038;11.684;2024-01-16T12:33:27;10.38;;;4.35;;
7295;SDS011;40758;54.038;11.684;2024-01-16T12:36:01;5.50;;;2.25;;
7295;SDS011;40758;54.038;11.684;2024-01-16T12:38:31;4.65;;;2.03;;
7295;SDS011;40758;54.038;11.684;2024-01-16T12:40:58;7.55;;;4.60;;
7295;SDS011;40758;54.038;11.684;2024-01-16T12:43:26;8.38;;;5.28;;
7295;SDS011;40758;54.038;11.684;2024-01-16T12:45:55;10.25;;;2.78;;
7295;SDS011;40758;54.038;11.684;2024-01-16T12:48:26;7.55;;;3.42;;
7295;SDS011;40758;54.038;11.684;2024-01-16T12:51:00;12.02;;;6.32;;
7295;SDS011;40758;54.038;11.684;2024-01-16T12:53:30;11.60;;;5.95;;
7295;SDS011;40758;54.038;11.684;2024-01-16T12:56:03;12.48;;;4.70;;
7295;SDS011;40758;54.038;11.684;2024-01-16T12:58:36;11.25;;;5.97;;
7295;SDS011;40758;54.038;11.684;2024-01-16T13:04:04;11.15;;;5.50;;
7295;SDS011;40758;54.038;11.684;2024-01-16T13:06:31;6.55;;;4.03;;
7295;SDS011;40758;54.038;11.684;2024-01-16T13:09:06;6.50;;;5.82;;
7295;SDS011;40758;54.038;11.684;2024-01-16T13:11:48;5.75;;;4.28;;
7295;SDS011;40758;54.038;11.684;2024-01-16T13:14:22;8.40;;;3.22;;
7295;SDS011;40758;54.038;11.684;2024-01-16T13:16:49;8.65;;;5.07;;
7295;SDS011;40758;54.038;11.684;2024-01-16T13:19:18;8.95;;;5.65;;
7295;SDS011;40758;54.038;11.684;2024-01-16T13:21:46;9.32;;;5.95;;
7295;SDS011;40758;54.038;11.684;2024-01-16T13:24:13;8.02;;;6.13;;
7295;SDS011;40758;54.038;11.684;2024-01-16T13:26:40;6.57;;;4.00;;
7295;SDS011;40758;54.038;11.684;2024-01-16T13:29:07;4.50;;;4.13;;
7295;SDS011;40758;54.038;11.684;2024-01-16T13:31:35;9.43;;;5.68;;
7295;SDS011;40758;54.038;11.684;2024-01-16T13:34:02;7.00;;;2.50;;
7295;SDS011;40758;54.038;11.684;2024-01-16T13:36:31;7.47;;;4.55;;
7295;SDS011;40758;54.038;11.684;2024-01-16T13:39:18;5.55;;;5.05;;
7295;SDS011;40758;54.038;11.684;2024-01-16T13:41:46;7.15;;;3.03;;
7295;SDS011;40758;54.038;11.684;2024-01-16T13:44:13;8.07;;;2.75;;
7295;SDS011;40758;54.038;11.684;2024-01-16T13:46:41;10.13;;;3.22;;
7295;SDS011;40758;54.038;11.684;2024-01-16T13:49:26;6.82;;;5.30;;
7295;SDS011;40758;54.038;11.684;2024-01-16T13:51:53;7.28;;;3.92;;
7295;SDS011;40758;54.038;11.684;2024-01-16T13:54:21;4.25;;;3.63;;
7295;SDS011;40758;54.038;11.684;2024-01-16T13:56:48;6.43;;;1.60;;
7295;SDS011;40758;54.038;11.684;2024-01-16T13:59:32;3.92;;;1.42;;
7295;SDS011;40758;54.038;11.684;2024-01-16T14:01:59;6.25;;;4.65;;
7295;SDS011;40758;54.038;11.684;2024-01-16T14:04:25;3.00;;;2.60;;
7295;SDS011;40758;54.038;11.684;2024-01-16T14:06:52;5.20;;;1.05;;
7295;SDS011;40758;54.038;11.684;2024-01-16T14:09:37;3.97;;;3.03;;
7295;SDS011;40758;54.038;11.684;2024-01-16T14:12:05;5.78;;;1.10;;
7295;SDS011;40758;54.038;11.684;2024-01-16T14:14:35;10.93;;;4.05;;
7295;SDS011;40758;54.038;11.684;2024-01-16T14:17:02;5.70;;;4.53;;
7295;SDS011;40758;54.038;11.684;2024-01-16T14:19:29;2.72;;;1.00;;
7295;SDS011;40758;54.038;11.684;2024-01-16T14:21:57;5.03;;;4.38;;
7295;SDS011;40758;54.038;11.684;2024-01-16T14:24:25;4.72;;;1.73;;
7295;SDS011;40758;54.038;11.684;2024-01-16T14:26:52;5.60;;;3.58;;
7295;SDS011;40758;54.038;11.684;2024-01-16T14:29:19;6.00;;;5.00;;
7295;SDS011;40758;54.038;11.684;2024-01-16T14:31:46;5.88;;;5.38;;
7295;SDS011;40758;54.038;11.684;2024-01-16T14:34:16;3.15;;;1.05;;
7295;SDS011;40758;54.038;11.684;2024-01-16T14:36:45;6.55;;;4.32;;
7295;SDS011;40758;54.038;11.684;2024-01-16T14:39:12;2.33;;;0.82;;
7295;SDS011;40758;54.038;11.684;2024-01-16T14:41:44;7.03;;;1.75;;
7295;SDS011;40758;54.038;11.684;2024-01-16T14:44:14;4.88;;;4.43;;
7295;SDS011;40758;54.038;11.684;2024-01-16T14:46:41;3.85;;;3.53;;
7295;SDS011;40758;54.038;11.684;2024-01-16T14:49:14;5.65;;;5.25;;
7295;SDS011;40758;54.038;11.684;2024-01-16T14:51:44;3.33;;;2.20;;
7295;SDS011;40758;54.038;11.684;2024-01-16T14:54:13;7.38;;;5.55;;
7295;SDS011;40758;54.038;11.684;2024-01-16T14:56:40;4.10;;;2.92;;
7295;SDS011;40758;54.038;11.684;2024-01-16T14:59:06;6.13;;;1.70;;
7295;SDS011;40758;54.038;11.684;2024-01-16T15:01:40;5.38;;;2.03;;
7295;SDS011;40758;54.038;11.684;2024-01-16T15:04:06;6.00;;;2.20;;
7295;SDS011;40758;54.038;11.684;2024-01-16T15:06:34;3.42;;;1.48;;
7295;SDS011;40758;54.038;11.684;2024-01-16T15:09:01;7.68;;;4.72;;
7295;SDS011;40758;54.038;11.684;2024-01-16T15:11:27;4.75;;;3.33;;
7295;SDS011;40758;54.038;11.684;2024-01-16T15:13:54;6.95;;;2.83;;